createdAt,value
2023-11-21T00:01:39.091Z,100.00
2023-11-21T00:04:02.704Z,100.00
2023-11-21T00:06:24.751Z,100.00
2023-11-21T00:08:46.700Z,100.00
2023-11-21T00:11:08.603Z,100.00
2023-11-21T00:13:30.546Z,100.00
2023-11-21T00:15:52.589Z,100.00
2023-11-21T00:18:15.180Z,100.00
2023-11-21T00:20:37.142Z,100.00
2023-11-21T00:23:00.582Z,100.00
2023-11-21T00:25:22.481Z,100.00
2023-11-21T00:27:44.407Z,100.00
2023-11-21T00:30:07.706Z,100.00
2023-11-21T00:32:30.034Z,100.00
2023-11-21T00:34:51.992Z,100.00
2023-11-21T00:37:14.051Z,100.00
2023-11-21T00:39:36.336Z,100.00
2023-11-21T00:41:58.223Z,100.00
2023-11-21T00:44:20.172Z,100.00
2023-11-21T00:46:42.164Z,100.00
2023-11-21T00:49:07.453Z,100.00
2023-11-21T00:51:29.364Z,100.00
2023-11-21T00:53:51.337Z,100.00
2023-11-21T00:56:13.258Z,100.00
2023-11-21T00:58:35.233Z,100.00
2023-11-21T01:00:57.224Z,100.00
2023-11-21T01:03:19.323Z,100.00
2023-11-21T01:05:41.239Z,100.00
2023-11-21T01:08:03.157Z,100.00
2023-11-21T01:10:25.934Z,100.00
2023-11-21T01:12:48.143Z,100.00
2023-11-21T01:15:10.386Z,100.00
2023-11-21T01:17:32.678Z,100.00
2023-11-21T01:19:54.728Z,100.00
2023-11-21T01:22:17.463Z,100.00
2023-11-21T01:24:39.376Z,100.00
2023-11-21T01:27:01.295Z,100.00
2023-11-21T01:29:23.173Z,100.00
2023-11-21T01:31:45.225Z,100.00
2023-11-21T01:34:07.158Z,100.00
2023-11-21T01:36:33.521Z,100.00
2023-11-21T01:38:55.810Z,100.00
2023-11-21T01:41:17.782Z,100.00
2023-11-21T01:43:42.503Z,100.00
2023-11-21T01:46:05.272Z,100.00
2023-11-21T01:48:28.686Z,100.00
2023-11-21T01:50:50.916Z,100.00
2023-11-21T01:53:14.408Z,100.00
2023-11-21T01:55:36.799Z,100.00
2023-11-21T01:57:59.154Z,100.00
2023-11-21T02:00:21.547Z,100.00
2023-11-21T02:02:50.290Z,100.00
2023-11-21T02:05:13.602Z,100.00
2023-11-21T02:07:36.220Z,100.00
2023-11-21T02:09:58.107Z,100.00
2023-11-21T02:12:19.976Z,100.00
2023-11-21T02:14:41.862Z,100.00
2023-11-21T02:17:04.752Z,100.00
2023-11-21T02:19:27.091Z,100.00
2023-11-21T02:21:50.931Z,100.00
2023-11-21T02:24:12.870Z,100.00
2023-11-21T02:26:35.061Z,100.00
2023-11-21T02:28:59.285Z,100.00
2023-11-21T02:31:21.330Z,100.00
2023-11-21T02:33:43.579Z,100.00
2023-11-21T02:36:06.649Z,100.00
2023-11-21T02:38:28.515Z,100.00
2023-11-21T02:40:50.634Z,100.00
2023-11-21T02:43:12.750Z,100.00
2023-11-21T02:45:34.695Z,100.00
2023-11-21T02:47:58.751Z,100.00
2023-11-21T02:50:21.534Z,100.00
2023-11-21T02:52:43.621Z,100.00
2023-11-21T02:55:06.073Z,100.00
2023-11-21T02:57:28.031Z,100.00
2023-11-21T02:59:49.978Z,100.00
2023-11-21T03:02:11.997Z,100.00
2023-11-21T03:04:34.082Z,100.00
2023-11-21T03:06:56.016Z,100.00
2023-11-21T03:09:18.252Z,100.00
2023-11-21T03:11:40.188Z,100.00
2023-11-21T03:14:02.333Z,100.00
2023-11-21T03:16:24.309Z,100.00
2023-11-21T03:18:46.369Z,100.00
2023-11-21T03:21:10.053Z,100.00
2023-11-21T03:23:32.922Z,100.00
2023-11-21T03:25:54.843Z,100.00
2023-11-21T03:28:16.822Z,100.00
2023-11-21T03:30:38.676Z,100.00
2023-11-21T03:33:00.577Z,100.00
2023-11-21T03:35:22.643Z,100.00
2023-11-21T03:37:45.242Z,100.00
2023-11-21T03:40:10.131Z,100.00
2023-11-21T03:42:32.068Z,100.00
2023-11-21T03:44:54.070Z,100.00
2023-11-21T03:47:16.830Z,100.00
2023-11-21T03:49:39.459Z,100.00
2023-11-21T03:52:01.415Z,100.00
2023-11-21T03:54:23.359Z,100.00
2023-11-21T03:56:45.586Z,100.00
2023-11-21T03:59:07.530Z,100.00
2023-11-21T04:01:29.463Z,100.00
2023-11-21T04:03:52.381Z,100.00
2023-11-21T04:06:14.412Z,100.00
2023-11-21T04:08:36.383Z,100.00
2023-11-21T04:10:59.252Z,100.00
2023-11-21T04:13:21.216Z,100.00
2023-11-21T04:15:43.151Z,100.00
2023-11-21T04:18:05.215Z,100.00
2023-11-21T04:20:27.301Z,100.00
2023-11-21T04:22:49.894Z,100.00
2023-11-21T04:25:14.761Z,100.00
2023-11-21T04:27:36.662Z,100.00
2023-11-21T04:29:58.525Z,100.00
2023-11-21T04:32:20.593Z,100.00
2023-11-21T04:34:42.530Z,100.00
2023-11-21T04:37:07.334Z,100.00
2023-11-21T04:39:29.256Z,100.00
2023-11-21T04:41:51.573Z,100.00
2023-11-21T04:44:14.760Z,100.00
2023-11-21T04:46:36.747Z,100.00
2023-11-21T04:49:01.784Z,100.00
2023-11-21T04:51:23.696Z,100.00
2023-11-21T04:53:45.528Z,100.00
2023-11-21T04:56:07.825Z,100.00
2023-11-21T04:58:29.760Z,100.00
2023-11-21T05:00:52.054Z,100.00
2023-11-21T05:03:14.157Z,100.00
2023-11-21T05:05:36.123Z,100.00
2023-11-21T05:07:58.178Z,100.00
2023-11-21T05:10:20.886Z,100.00
2023-11-21T05:12:43.518Z,100.00
2023-11-21T05:15:11.099Z,100.00
2023-11-21T05:17:33.543Z,100.00
2023-11-21T05:19:55.651Z,100.00
2023-11-21T05:22:17.777Z,100.00
2023-11-21T05:24:42.539Z,100.00
2023-11-21T05:27:04.810Z,100.00
2023-11-21T05:29:26.834Z,100.00
2023-11-21T05:31:48.806Z,100.00
2023-11-21T05:34:10.782Z,100.00
2023-11-21T05:36:32.783Z,100.00
2023-11-21T05:38:54.717Z,100.00
2023-11-21T05:41:16.949Z,100.00
2023-11-21T05:43:38.959Z,100.00
2023-11-21T05:46:00.886Z,100.00
2023-11-21T05:48:22.974Z,100.00
2023-11-21T05:50:45.169Z,100.00
2023-11-21T05:53:07.140Z,100.00
2023-11-21T05:55:29.227Z,100.00
2023-11-21T05:57:51.262Z,100.00
2023-11-21T06:00:21.117Z,100.00
2023-11-21T06:02:43.137Z,100.00
2023-11-21T06:05:06.183Z,100.00
2023-11-21T06:07:28.147Z,100.00
2023-11-21T06:09:51.252Z,100.00
2023-11-21T06:12:13.129Z,100.00
2023-11-21T06:14:36.141Z,100.00
2023-11-21T06:16:58.798Z,100.00
2023-11-21T06:19:20.800Z,100.00
2023-11-21T06:21:46.837Z,100.00
2023-11-21T06:24:08.837Z,100.00
2023-11-21T06:26:30.708Z,100.00
2023-11-21T06:28:53.874Z,100.00
2023-11-21T06:31:15.762Z,100.00
2023-11-21T06:33:37.680Z,100.00
2023-11-21T06:35:59.634Z,100.00
2023-11-21T06:38:21.541Z,100.00
2023-11-21T06:40:43.488Z,100.00
2023-11-21T06:43:08.044Z,100.00
2023-11-21T06:45:29.908Z,100.00
2023-11-21T06:47:52.386Z,100.00
2023-11-21T06:50:15.183Z,100.00
2023-11-21T06:52:37.334Z,100.00
2023-11-21T06:54:59.326Z,100.00
2023-11-21T06:57:21.437Z,100.00
2023-11-21T06:59:43.428Z,100.00
2023-11-21T07:02:07.954Z,100.00
2023-11-21T07:04:30.153Z,100.00
2023-11-21T07:06:52.495Z,100.00
2023-11-21T07:09:14.499Z,100.00
2023-11-21T07:11:38.255Z,100.00
2023-11-21T07:14:00.943Z,100.00
2023-11-21T07:16:23.547Z,100.00
2023-11-21T07:18:45.921Z,100.00
2023-11-21T07:21:09.552Z,100.00
2023-11-21T07:23:31.504Z,100.00
2023-11-21T07:25:53.641Z,100.00
2023-11-21T07:28:15.494Z,100.00
2023-11-21T07:30:37.569Z,100.00
2023-11-21T07:32:59.662Z,100.00
2023-11-21T07:35:21.642Z,100.00
2023-11-21T07:37:44.258Z,100.00
2023-11-21T07:40:09.398Z,100.00
2023-11-21T07:42:31.283Z,100.00
2023-11-21T07:44:53.664Z,100.00
2023-11-21T07:47:15.630Z,100.00
2023-11-21T07:49:37.563Z,100.00
2023-11-21T07:51:59.434Z,100.00
2023-11-21T07:54:22.402Z,100.00
2023-11-21T07:56:44.552Z,100.00
2023-11-21T07:59:06.708Z,100.00
2023-11-21T08:01:29.257Z,100.00
2023-11-21T08:03:53.507Z,100.00
2023-11-21T08:06:15.687Z,100.00
2023-11-21T08:08:37.576Z,100.00
2023-11-21T08:10:59.459Z,100.00
2023-11-21T08:13:21.954Z,100.00
2023-11-21T08:15:47.292Z,100.00
2023-11-21T08:18:09.660Z,100.00
2023-11-21T08:20:31.610Z,100.00
2023-11-21T08:22:53.912Z,100.00
2023-11-21T08:25:16.364Z,100.00
2023-11-21T08:27:38.413Z,100.00
2023-11-21T08:30:00.338Z,100.00
2023-11-21T08:32:22.565Z,100.00
2023-11-21T08:34:45.856Z,100.00
2023-11-21T08:37:07.869Z,100.00
2023-11-21T08:39:31.470Z,100.00
2023-11-21T08:41:53.353Z,100.00
2023-11-21T08:44:17.563Z,100.00
2023-11-21T08:46:40.885Z,100.00
2023-11-21T08:49:03.127Z,100.00
2023-11-21T08:51:24.979Z,100.00
2023-11-21T08:53:46.990Z,100.00
2023-11-21T08:56:10.614Z,100.00
2023-11-21T08:58:33.443Z,100.00
2023-11-21T09:00:55.492Z,100.00
2023-11-21T09:03:17.551Z,100.00
2023-11-21T09:05:40.595Z,100.00
2023-11-21T09:08:02.525Z,100.00
2023-11-21T09:10:26.634Z,100.00
2023-11-21T09:12:48.707Z,100.00
2023-11-21T09:15:12.197Z,100.00
2023-11-21T09:17:37.905Z,100.00
2023-11-21T09:19:59.989Z,100.00
2023-11-21T09:22:21.939Z,100.00
2023-11-21T09:24:43.873Z,100.00
2023-11-21T09:27:06.372Z,100.00
2023-11-21T09:29:28.780Z,100.00
2023-11-21T09:31:53.615Z,100.00
2023-11-21T09:34:16.444Z,100.00
2023-11-21T09:36:40.419Z,100.00
2023-11-21T09:39:03.910Z,100.00
2023-11-21T09:41:57.549Z,100.00
2023-11-21T09:44:43.882Z,100.00
2023-11-21T09:47:11.695Z,100.00
2023-11-21T09:49:35.748Z,100.00
2023-11-21T09:51:58.267Z,100.00
2023-11-21T09:54:22.481Z,100.00
2023-11-21T09:56:44.987Z,100.00
2023-11-21T09:59:11.098Z,100.00
2023-11-21T10:01:34.687Z,100.00
2023-11-21T10:03:57.764Z,100.00
2023-11-21T10:06:20.222Z,100.00
2023-11-21T10:08:49.914Z,100.00
2023-11-21T10:11:20.785Z,100.00
2023-11-21T10:13:45.117Z,100.00
2023-11-21T10:16:08.709Z,100.00
2023-11-21T10:18:30.928Z,100.00
2023-11-21T10:20:54.838Z,100.00
2023-11-21T10:23:17.065Z,100.00
2023-11-21T10:25:39.047Z,100.00
2023-11-21T10:28:03.042Z,100.00
2023-11-21T10:30:34.025Z,100.00
2023-11-21T10:33:02.730Z,100.00
2023-11-21T10:35:25.279Z,100.00
2023-11-21T10:38:01.827Z,100.00
2023-11-21T10:40:23.926Z,100.00
2023-11-21T10:42:45.843Z,100.00
2023-11-21T10:45:14.224Z,100.00
2023-11-21T10:47:37.372Z,100.00
2023-11-21T10:50:03.202Z,100.00
2023-11-21T10:52:28.445Z,100.00
2023-11-21T10:54:50.438Z,100.00
2023-11-21T10:57:16.219Z,100.00
2023-11-21T10:59:39.704Z,100.00
2023-11-21T11:02:17.887Z,100.00
2023-11-21T11:04:40.253Z,100.00
2023-11-21T11:07:06.321Z,100.00
2023-11-21T11:09:28.767Z,99.95
2023-11-21T11:11:52.614Z,100.00
2023-11-21T11:14:15.340Z,99.47
2023-11-21T11:16:42.383Z,97.27
2023-11-21T11:19:04.358Z,97.47
2023-11-21T11:21:49.708Z,97.07
2023-11-21T11:24:17.666Z,97.33
2023-11-21T11:27:02.353Z,96.85
2023-11-21T11:29:49.642Z,96.41
2023-11-21T11:32:25.478Z,96.02
2023-11-21T11:35:03.299Z,96.11
2023-11-21T11:37:25.389Z,95.68
2023-11-21T11:39:47.272Z,93.70
2023-11-21T11:42:13.833Z,93.93
2023-11-21T11:44:47.737Z,91.81
2023-11-21T11:47:20.935Z,89.18
2023-11-21T11:50:18.146Z,88.89
2023-11-21T11:52:45.668Z,89.45
2023-11-21T11:55:13.205Z,88.57
2023-11-21T11:57:36.431Z,89.51
2023-11-21T12:00:12.874Z,89.21
2023-11-21T12:02:35.968Z,88.81
2023-11-21T12:04:58.511Z,89.63
2023-11-21T12:07:23.090Z,89.23
2023-11-21T12:09:48.277Z,87.76
2023-11-21T12:12:10.428Z,87.86
2023-11-21T12:14:32.717Z,87.24
2023-11-21T12:16:54.981Z,86.01
2023-11-21T12:19:16.861Z,86.48
2023-11-21T12:21:38.925Z,87.16
2023-11-21T12:24:01.273Z,86.51
2023-11-21T12:26:25.510Z,86.50
2023-11-21T12:28:57.337Z,86.50
2023-11-21T12:31:22.587Z,87.26
2023-11-21T12:33:44.900Z,86.94
2023-11-21T12:36:07.455Z,87.36
2023-11-21T12:38:36.533Z,86.70
2023-11-21T12:40:58.836Z,87.19
2023-11-21T12:43:21.640Z,88.00
2023-11-21T12:45:44.951Z,88.09
2023-11-21T12:48:12.596Z,88.54
2023-11-21T12:50:37.435Z,88.01
2023-11-21T12:53:03.475Z,85.84
2023-11-21T12:55:26.694Z,86.13
2023-11-21T12:57:56.981Z,85.64
2023-11-21T13:00:29.514Z,86.40
2023-11-21T13:02:55.253Z,86.09
2023-11-21T13:05:31.861Z,84.43
2023-11-21T13:07:55.666Z,84.70
2023-11-21T13:10:18.431Z,83.90
2023-11-21T13:12:49.274Z,84.88
2023-11-21T13:15:12.016Z,85.03
2023-11-21T13:17:34.008Z,83.66
2023-11-21T13:19:58.866Z,83.81
2023-11-21T13:22:21.919Z,83.85
2023-11-21T13:24:43.755Z,84.75
2023-11-21T13:27:05.628Z,84.91
2023-11-21T13:29:27.647Z,84.41
2023-11-21T13:31:51.898Z,85.44
2023-11-21T13:34:18.257Z,85.02
2023-11-21T13:36:43.512Z,85.85
2023-11-21T13:39:16.589Z,85.72
2023-11-21T13:41:39.879Z,84.66
2023-11-21T13:44:16.691Z,84.56
2023-11-21T13:46:39.289Z,84.41
2023-11-21T13:49:01.682Z,83.78
2023-11-21T13:51:32.347Z,82.92
2023-11-21T13:53:56.096Z,83.18
2023-11-21T13:56:22.176Z,83.61
2023-11-21T13:59:06.599Z,83.70
2023-11-21T14:01:31.655Z,83.10
2023-11-21T14:04:03.182Z,83.81
2023-11-21T14:06:32.499Z,83.26
2023-11-21T14:08:57.783Z,84.05
2023-11-21T14:11:23.500Z,84.17
2023-11-21T14:13:49.691Z,84.51
2023-11-21T14:16:12.808Z,84.33
2023-11-21T14:18:44.707Z,84.77
2023-11-21T14:21:06.884Z,84.71
2023-11-21T14:23:30.893Z,84.68
2023-11-21T14:25:53.058Z,84.57
2023-11-21T14:28:15.848Z,85.31
2023-11-21T14:30:37.946Z,84.57
2023-11-21T14:33:02.051Z,84.62
2023-11-21T14:35:23.982Z,84.57
2023-11-21T14:37:47.251Z,85.78
2023-11-21T14:40:10.055Z,85.74
2023-11-21T14:42:31.987Z,85.46
2023-11-21T14:44:55.385Z,85.23
2023-11-21T14:47:17.955Z,85.07
2023-11-21T14:49:53.614Z,85.58
2023-11-21T14:52:44.544Z,86.80
2023-11-21T14:55:26.918Z,85.44
2023-11-21T14:57:51.977Z,85.10
2023-11-21T15:00:32.674Z,84.25
2023-11-21T15:02:54.715Z,84.75
2023-11-21T15:05:17.889Z,84.86
2023-11-21T15:07:41.321Z,84.36
2023-11-21T15:10:04.318Z,84.87
2023-11-21T15:12:28.147Z,84.99
2023-11-21T15:14:57.746Z,85.64
2023-11-21T15:17:27.564Z,85.53
2023-11-21T15:19:51.066Z,85.36
2023-11-21T15:22:16.266Z,85.29
2023-11-21T15:24:38.181Z,84.58
2023-11-21T15:27:00.735Z,85.22
2023-11-21T15:29:22.914Z,85.06
2023-11-21T15:31:49.588Z,84.42
2023-11-21T15:34:11.917Z,85.54
2023-11-21T15:36:34.657Z,85.26
2023-11-21T15:38:56.709Z,85.54
2023-11-21T15:41:18.628Z,85.47
2023-11-21T15:43:40.531Z,85.58
2023-11-21T15:46:07.617Z,85.00
2023-11-21T15:48:30.406Z,85.16
2023-11-21T15:50:53.346Z,85.79
2023-11-21T15:53:16.400Z,85.79
2023-11-21T15:55:43.373Z,85.52
2023-11-21T15:58:07.688Z,86.54
2023-11-21T16:00:29.568Z,85.65
2023-11-21T16:02:51.820Z,86.14
2023-11-21T16:05:17.768Z,86.43
2023-11-21T16:07:40.436Z,87.04
2023-11-21T16:10:03.256Z,86.99
2023-11-21T16:12:25.235Z,87.49
2023-11-21T16:14:48.858Z,87.45
2023-11-21T16:17:11.780Z,86.45
2023-11-21T16:19:34.082Z,86.44
2023-11-21T16:21:56.189Z,86.63
2023-11-21T16:24:18.470Z,85.98
2023-11-21T16:26:44.774Z,86.56
2023-11-21T16:29:07.666Z,85.54
2023-11-21T16:31:29.657Z,85.23
2023-11-21T16:33:51.648Z,85.15
2023-11-21T16:36:13.529Z,85.48
2023-11-21T16:38:35.376Z,86.01
2023-11-21T16:40:59.183Z,85.42
2023-11-21T16:43:21.178Z,86.00
2023-11-21T16:45:44.622Z,85.80
2023-11-21T16:48:08.644Z,86.01
2023-11-21T16:50:31.029Z,86.29
2023-11-21T16:52:53.524Z,85.46
2023-11-21T16:55:17.050Z,86.34
2023-11-21T16:57:39.413Z,86.48
2023-11-21T17:00:01.285Z,86.76
2023-11-21T17:02:23.301Z,87.68
2023-11-21T17:04:46.149Z,87.72
2023-11-21T17:07:12.785Z,87.53
2023-11-21T17:09:34.698Z,86.52
2023-11-21T17:11:58.133Z,87.06
2023-11-21T17:14:20.167Z,87.10
2023-11-21T17:16:43.190Z,87.15
2023-11-21T17:19:05.193Z,88.05
2023-11-21T17:21:32.752Z,88.34
2023-11-21T17:23:57.916Z,88.03
2023-11-21T17:26:20.203Z,88.84
2023-11-21T17:28:43.371Z,88.89
2023-11-21T17:31:05.271Z,88.95
2023-11-21T17:33:27.241Z,89.74
2023-11-21T17:35:50.166Z,90.96
2023-11-21T17:38:13.640Z,90.42
2023-11-21T17:40:38.490Z,91.62
2023-11-21T17:43:00.371Z,92.02
2023-11-21T17:45:22.464Z,92.21
2023-11-21T17:47:44.419Z,91.70
2023-11-21T17:50:06.593Z,92.34
2023-11-21T17:52:28.520Z,93.09
2023-11-21T17:54:51.176Z,93.19
2023-11-21T17:57:13.102Z,93.72
2023-11-21T17:59:35.352Z,93.87
2023-11-21T18:02:04.719Z,95.35
2023-11-21T18:04:27.428Z,96.14
2023-11-21T18:06:49.302Z,96.58
2023-11-21T18:09:11.227Z,96.77
2023-11-21T18:11:33.093Z,97.65
2023-11-21T18:13:55.278Z,97.18
2023-11-21T18:16:17.236Z,98.03
2023-11-21T18:18:40.081Z,97.85
2023-11-21T18:21:03.587Z,97.88
2023-11-21T18:23:25.567Z,97.94
2023-11-21T18:25:47.477Z,98.20
2023-11-21T18:28:09.330Z,99.43
2023-11-21T18:30:31.201Z,99.13
2023-11-21T18:32:53.144Z,99.44
2023-11-21T18:35:15.195Z,99.96
2023-11-21T18:37:37.093Z,99.28
2023-11-21T18:39:59.112Z,98.79
2023-11-21T18:42:22.906Z,99.99
2023-11-21T18:44:55.166Z,100.00
2023-11-21T18:47:21.941Z,100.00
2023-11-21T18:49:44.481Z,100.00
2023-11-21T18:52:08.365Z,100.00
2023-11-21T18:54:30.558Z,100.00
2023-11-21T18:56:53.368Z,100.00
2023-11-21T18:59:16.157Z,100.00
2023-11-21T19:01:39.752Z,100.00
2023-11-21T19:04:01.886Z,100.00
2023-11-21T19:06:23.950Z,100.00
2023-11-21T19:08:45.855Z,100.00
2023-11-21T19:11:07.820Z,100.00
2023-11-21T19:13:29.741Z,100.00
2023-11-21T19:15:51.571Z,99.30
2023-11-21T19:18:13.848Z,98.46
2023-11-21T19:20:35.723Z,98.15
2023-11-21T19:22:57.712Z,98.80
2023-11-21T19:25:20.055Z,99.52
2023-11-21T19:27:43.091Z,98.30
2023-11-21T19:30:05.938Z,98.86
2023-11-21T19:32:27.868Z,98.11
2023-11-21T19:34:49.934Z,98.25
2023-11-21T19:37:12.078Z,98.16
2023-11-21T19:39:34.045Z,98.23
2023-11-21T19:41:55.957Z,98.18
2023-11-21T19:44:17.840Z,98.91
2023-11-21T19:46:39.799Z,98.27
2023-11-21T19:49:03.478Z,98.00
2023-11-21T19:51:25.602Z,98.27
2023-11-21T19:53:48.540Z,98.19
2023-11-21T19:56:10.864Z,98.33
2023-11-21T19:58:33.155Z,97.83
2023-11-21T20:00:55.014Z,97.62
2023-11-21T20:03:19.913Z,98.03
2023-11-21T20:05:41.864Z,97.32
2023-11-21T20:08:04.756Z,97.71
2023-11-21T20:10:26.967Z,97.81
2023-11-21T20:12:55.528Z,97.84
2023-11-21T20:15:20.904Z,97.31
2023-11-21T20:17:44.933Z,97.99
2023-11-21T20:20:07.366Z,96.98
2023-11-21T20:22:29.731Z,97.13
2023-11-21T20:24:51.674Z,96.47
2023-11-21T20:27:15.755Z,97.27
2023-11-21T20:29:40.742Z,96.75
2023-11-21T20:32:02.808Z,97.01
2023-11-21T20:34:24.744Z,96.31
2023-11-21T20:36:52.746Z,97.54
2023-11-21T20:39:16.821Z,97.56
2023-11-21T20:41:42.330Z,94.23
2023-11-21T20:44:06.470Z,92.70
2023-11-21T20:46:28.379Z,90.17
2023-11-21T20:48:53.001Z,88.39
2023-11-21T20:51:16.735Z,88.83
2023-11-21T20:53:39.552Z,90.01
2023-11-21T20:56:02.787Z,89.15
2023-11-21T20:58:24.818Z,88.69
2023-11-21T21:00:46.687Z,87.89
2023-11-21T21:03:08.851Z,88.33
2023-11-21T21:05:30.855Z,87.98
2023-11-21T21:07:53.034Z,87.24
2023-11-21T21:10:15.150Z,87.79
2023-11-21T21:12:38.120Z,87.78
2023-11-21T21:15:00.003Z,87.65
2023-11-21T21:17:22.433Z,87.95
2023-11-21T21:19:44.344Z,88.14
2023-11-21T21:22:07.240Z,87.98
2023-11-21T21:24:29.397Z,88.46
2023-11-21T21:26:51.385Z,87.92
2023-11-21T21:29:13.244Z,87.95
2023-11-21T21:31:36.723Z,88.34
2023-11-21T21:33:58.597Z,89.21
2023-11-21T21:36:21.034Z,88.91
2023-11-21T21:38:43.950Z,88.43
2023-11-21T21:41:12.360Z,88.91
2023-11-21T21:43:34.371Z,89.33
2023-11-21T21:45:56.308Z,89.60
2023-11-21T21:48:18.377Z,88.55
2023-11-21T21:50:40.464Z,88.70
2023-11-21T21:53:02.625Z,88.34
2023-11-21T21:55:24.615Z,88.66
2023-11-21T21:57:46.965Z,89.53
2023-11-21T22:00:10.854Z,87.80
2023-11-21T22:02:32.841Z,87.69
2023-11-21T22:04:55.926Z,87.59
2023-11-21T22:07:17.831Z,87.17
2023-11-21T22:09:39.789Z,86.58
2023-11-21T22:12:01.602Z,86.14
2023-11-21T22:14:23.905Z,86.63
2023-11-21T22:16:45.882Z,86.77
2023-11-21T22:19:07.786Z,87.06
2023-11-21T22:21:29.644Z,87.15
2023-11-21T22:23:54.173Z,86.32
2023-11-21T22:26:16.962Z,86.67
2023-11-21T22:28:39.632Z,86.34
2023-11-21T22:31:01.796Z,86.43
2023-11-21T22:33:24.662Z,86.28
2023-11-21T22:35:46.670Z,85.31
2023-11-21T22:38:10.854Z,85.47
2023-11-21T22:40:32.879Z,84.87
2023-11-21T22:42:54.733Z,84.76
2023-11-21T22:45:17.008Z,84.90
2023-11-21T22:47:39.210Z,83.95
2023-11-21T22:50:01.290Z,83.52
2023-11-21T22:52:25.261Z,82.75
2023-11-21T22:54:47.098Z,82.78
2023-11-21T22:57:08.971Z,82.95
2023-11-21T22:59:31.215Z,82.75
2023-11-21T23:01:54.791Z,83.75
2023-11-21T23:04:20.921Z,84.79
2023-11-21T23:06:42.836Z,85.20
2023-11-21T23:09:04.793Z,85.56
2023-11-21T23:11:26.874Z,86.49
2023-11-21T23:13:48.809Z,86.83
2023-11-21T23:16:10.805Z,87.31
2023-11-21T23:18:33.073Z,86.23
2023-11-21T23:20:58.553Z,86.99
2023-11-21T23:23:24.593Z,85.74
2023-11-21T23:25:47.460Z,86.99
2023-11-21T23:28:09.349Z,84.76
2023-11-21T23:30:31.240Z,84.42
2023-11-21T23:32:53.191Z,83.88
2023-11-21T23:35:15.254Z,82.73
2023-11-21T23:37:37.450Z,85.16
2023-11-21T23:40:00.320Z,86.41
2023-11-21T23:42:22.176Z,87.94
2023-11-21T23:44:44.086Z,87.76
2023-11-21T23:47:06.655Z,88.43
2023-11-21T23:49:29.285Z,87.65
2023-11-21T23:51:51.334Z,86.66
2023-11-21T23:54:13.426Z,86.17
2023-11-21T23:56:35.403Z,87.07
2023-11-21T23:58:57.770Z,85.15
